sensor_id;sensor_type;location;lat;lon;timestamp;P1;durP1;ratioP1;P2;durP2;ratioP2
25917;SDS011;13899;51.174;4.456;2024-01-15T00:00:49;13.07;;;6.63;;
25917;SDS011;13899;51.174;4.456;2024-01-15T00:03:16;9.87;;;6.43;;
25917;SDS011;13899;51.174;4.456;2024-01-15T00:08:07;8.67;;;5.87;;
25917;SDS011;13899;51.174;4.456;2024-01-15T00:10:33;10.03;;;5.33;;
25917;SDS011;13899;51.174;4.456;2024-01-15T00:12:58;9.03;;;5.47;;
25917;SDS011;13899;51.174;4.456;2024-01-15T00:15:24;18.57;;;5.40;;
25917;SDS011;13899;51.174;4.456;2024-01-15T00:17:50;5.93;;;4.23;;
25917;SDS011;13899;51.174;4.456;2024-01-15T00:20:16;5.87;;;3.43;;
25917;SDS011;13899;51.174;4.456;2024-01-15T00:25:08;4.70;;;3.07;;
25917;SDS011;13899;51.174;4.456;2024-01-15T00:27:35;4.25;;;2.35;;
25917;SDS011;13899;51.174;4.456;2024-01-15T00:30:02;2.97;;;1.20;;
25917;SDS011;13899;51.174;4.456;2024-01-15T00:32:30;1.30;;;0.70;;
25917;SDS011;13899;51.174;4.456;2024-01-15T00:34:55;7.77;;;0.80;;
25917;SDS011;13899;51.174;4.456;2024-01-15T00:37:21;1.80;;;0.60;;
25917;SDS011;13899;51.174;4.456;2024-01-15T00:39:47;1.27;;;0.60;;
25917;SDS011;13899;51.174;4.456;2024-01-15T00:42:13;3.10;;;0.70;;
25917;SDS011;13899;51.174;4.456;2024-01-15T00:44:38;0.50;;;0.50;;
25917;SDS011;13899;51.174;4.456;2024-01-15T00:47:04;2.47;;;0.67;;
25917;SDS011;13899;51.174;4.456;2024-01-15T00:49:30;2.40;;;0.53;;
25917;SDS011;13899;51.174;4.456;2024-01-15T00:51:56;2.90;;;0.60;;
25917;SDS011;13899;51.174;4.456;2024-01-15T00:54:21;4.00;;;0.87;;
25917;SDS011;13899;51.174;4.456;2024-01-15T00:56:47;1.00;;;0.63;;
25917;SDS011;13899;51.174;4.456;2024-01-15T00:59:12;2.30;;;0.70;;
25917;SDS011;13899;51.174;4.456;2024-01-15T01:01:40;1.75;;;0.55;;
25917;SDS011;13899;51.174;4.456;2024-01-15T01:04:08;1.20;;;0.70;;
25917;SDS011;13899;51.174;4.456;2024-01-15T01:06:34;5.45;;;0.93;;
25917;SDS011;13899;51.174;4.456;2024-01-15T01:09:00;2.07;;;0.77;;
25917;SDS011;13899;51.174;4.456;2024-01-15T01:11:25;5.83;;;0.70;;
25917;SDS011;13899;51.174;4.456;2024-01-15T01:13:51;3.63;;;0.70;;
25917;SDS011;13899;51.174;4.456;2024-01-15T01:16:16;2.07;;;0.80;;
25917;SDS011;13899;51.174;4.456;2024-01-15T01:18:42;4.13;;;0.90;;
25917;SDS011;13899;51.174;4.456;2024-01-15T01:21:08;1.50;;;1.00;;
25917;SDS011;13899;51.174;4.456;2024-01-15T01:23:33;6.97;;;0.93;;
25917;SDS011;13899;51.174;4.456;2024-01-15T01:25:59;4.07;;;1.40;;
25917;SDS011;13899;51.174;4.456;2024-01-15T01:28:24;3.90;;;1.37;;
25917;SDS011;13899;51.174;4.456;2024-01-15T01:30:50;2.60;;;1.20;;
25917;SDS011;13899;51.174;4.456;2024-01-15T01:33:16;6.13;;;1.50;;
25917;SDS011;13899;51.174;4.456;2024-01-15T01:35:41;3.37;;;1.90;;
25917;SDS011;13899;51.174;4.456;2024-01-15T01:38:08;8.35;;;2.65;;
25917;SDS011;13899;51.174;4.456;2024-01-15T01:40:34;4.47;;;3.20;;
25917;SDS011;13899;51.174;4.456;2024-01-15T01:42:59;11.73;;;3.33;;
25917;SDS011;13899;51.174;4.456;2024-01-15T01:45:25;10.67;;;4.00;;
25917;SDS011;13899;51.174;4.456;2024-01-15T01:47:50;5.73;;;3.67;;
25917;SDS011;13899;51.174;4.456;2024-01-15T01:50:16;3.80;;;2.80;;
25917;SDS011;13899;51.174;4.456;2024-01-15T01:52:42;9.60;;;3.72;;
25917;SDS011;13899;51.174;4.456;2024-01-15T01:55:08;11.73;;;3.97;;
25917;SDS011;13899;51.174;4.456;2024-01-15T01:57:35;4.63;;;3.75;;
25917;SDS011;13899;51.174;4.456;2024-01-15T02:00:02;8.70;;;4.27;;
25917;SDS011;13899;51.174;4.456;2024-01-15T02:02:29;6.63;;;4.88;;
25917;SDS011;13899;51.174;4.456;2024-01-15T02:04:55;10.38;;;6.18;;
25917;SDS011;13899;51.174;4.456;2024-01-15T02:07:21;13.07;;;6.20;;
25917;SDS011;13899;51.174;4.456;2024-01-15T02:09:49;8.25;;;5.10;;
25917;SDS011;13899;51.174;4.456;2024-01-15T02:12:15;7.93;;;5.65;;
25917;SDS011;13899;51.174;4.456;2024-01-15T02:14:40;9.20;;;5.20;;
25917;SDS011;13899;51.174;4.456;2024-01-15T02:17:06;6.97;;;5.27;;
25917;SDS011;13899;51.174;4.456;2024-01-15T02:19:32;7.00;;;3.80;;
25917;SDS011;13899;51.174;4.456;2024-01-15T02:21:57;5.97;;;3.70;;
25917;SDS011;13899;51.174;4.456;2024-01-15T02:24:23;7.60;;;5.30;;
25917;SDS011;13899;51.174;4.456;2024-01-15T02:26:49;8.80;;;4.83;;
25917;SDS011;13899;51.174;4.456;2024-01-15T02:29:15;8.87;;;4.70;;
25917;SDS011;13899;51.174;4.456;2024-01-15T02:31:41;6.60;;;4.50;;
25917;SDS011;13899;51.174;4.456;2024-01-15T02:34:06;7.13;;;3.53;;
25917;SDS011;13899;51.174;4.456;2024-01-15T02:36:32;8.03;;;3.80;;
25917;SDS011;13899;51.174;4.456;2024-01-15T02:38:57;8.57;;;3.13;;
25917;SDS011;13899;51.174;4.456;2024-01-15T02:41:23;6.10;;;3.33;;
25917;SDS011;13899;51.174;4.456;2024-01-15T02:43:48;6.17;;;3.33;;
25917;SDS011;13899;51.174;4.456;2024-01-15T02:46:14;8.17;;;3.30;;
25917;SDS011;13899;51.174;4.456;2024-01-15T02:48:41;7.78;;;2.90;;
25917;SDS011;13899;51.174;4.456;2024-01-15T02:51:06;7.17;;;2.80;;
25917;SDS011;13899;51.174;4.456;2024-01-15T02:53:32;8.30;;;2.67;;
25917;SDS011;13899;51.174;4.456;2024-01-15T02:55:58;10.20;;;2.80;;
25917;SDS011;13899;51.174;4.456;2024-01-15T02:58:23;5.07;;;2.20;;
25917;SDS011;13899;51.174;4.456;2024-01-15T03:00:49;4.40;;;1.90;;
25917;SDS011;13899;51.174;4.456;2024-01-15T03:03:14;4.53;;;1.87;;
25917;SDS011;13899;51.174;4.456;2024-01-15T03:05:40;5.63;;;2.20;;
25917;SDS011;13899;51.174;4.456;2024-01-15T03:08:06;6.47;;;1.83;;
25917;SDS011;13899;51.174;4.456;2024-01-15T03:10:31;6.20;;;1.67;;
25917;SDS011;13899;51.174;4.456;2024-01-15T03:12:57;6.90;;;1.80;;
25917;SDS011;13899;51.174;4.456;2024-01-15T03:15:22;3.87;;;1.37;;
25917;SDS011;13899;51.174;4.456;2024-01-15T03:17:48;4.67;;;1.53;;
25917;SDS011;13899;51.174;4.456;2024-01-15T03:20:14;8.40;;;1.90;;
25917;SDS011;13899;51.174;4.456;2024-01-15T03:22:39;4.63;;;1.50;;
25917;SDS011;13899;51.174;4.456;2024-01-15T03:25:05;6.33;;;1.70;;
25917;SDS011;13899;51.174;4.456;2024-01-15T03:27:31;5.75;;;1.10;;
25917;SDS011;13899;51.174;4.456;2024-01-15T03:29:57;5.87;;;1.43;;
25917;SDS011;13899;51.174;4.456;2024-01-15T03:32:23;7.87;;;1.60;;
25917;SDS011;13899;51.174;4.456;2024-01-15T03:34:48;5.47;;;1.50;;
25917;SDS011;13899;51.174;4.456;2024-01-15T03:37:14;4.80;;;1.20;;
25917;SDS011;13899;51.174;4.456;2024-01-15T03:39:40;5.43;;;1.30;;
25917;SDS011;13899;51.174;4.456;2024-01-15T03:42:06;5.87;;;1.37;;
25917;SDS011;13899;51.174;4.456;2024-01-15T03:44:31;5.45;;;1.30;;
25917;SDS011;13899;51.174;4.456;2024-01-15T03:46:57;4.83;;;1.47;;
25917;SDS011;13899;51.174;4.456;2024-01-15T03:49:23;5.40;;;1.30;;
25917;SDS011;13899;51.174;4.456;2024-01-15T03:51:48;5.77;;;1.97;;
25917;SDS011;13899;51.174;4.456;2024-01-15T03:54:14;8.53;;;3.73;;
25917;SDS011;13899;51.174;4.456;2024-01-15T03:56:40;4.70;;;2.27;;
25917;SDS011;13899;51.174;4.456;2024-01-15T03:59:05;6.93;;;1.93;;
25917;SDS011;13899;51.174;4.456;2024-01-15T04:01:31;6.07;;;2.47;;
25917;SDS011;13899;51.174;4.456;2024-01-15T04:03:56;6.00;;;2.83;;
25917;SDS011;13899;51.174;4.456;2024-01-15T04:06:22;7.83;;;3.40;;
25917;SDS011;13899;51.174;4.456;2024-01-15T04:08:48;4.37;;;2.93;;
25917;SDS011;13899;51.174;4.456;2024-01-15T04:11:13;7.77;;;3.23;;
25917;SDS011;13899;51.174;4.456;2024-01-15T04:13:39;8.07;;;4.07;;
25917;SDS011;13899;51.174;4.456;2024-01-15T04:16:04;4.33;;;3.17;;
25917;SDS011;13899;51.174;4.456;2024-01-15T04:18:30;11.80;;;4.60;;
25917;SDS011;13899;51.174;4.456;2024-01-15T04:20:56;7.57;;;4.20;;
25917;SDS011;13899;51.174;4.456;2024-01-15T04:23:21;10.17;;;4.10;;
25917;SDS011;13899;51.174;4.456;2024-01-15T04:25:47;7.63;;;5.17;;
25917;SDS011;13899;51.174;4.456;2024-01-15T04:28:13;12.13;;;5.70;;
25917;SDS011;13899;51.174;4.456;2024-01-15T04:30:38;7.00;;;4.00;;
25917;SDS011;13899;51.174;4.456;2024-01-15T04:33:04;10.00;;;4.83;;
25917;SDS011;13899;51.174;4.456;2024-01-15T04:35:33;8.07;;;5.10;;
25917;SDS011;13899;51.174;4.456;2024-01-15T04:37:59;10.82;;;5.68;;
25917;SDS011;13899;51.174;4.456;2024-01-15T04:40:24;7.67;;;5.53;;
25917;SDS011;13899;51.174;4.456;2024-01-15T04:42:52;9.30;;;5.97;;
25917;SDS011;13899;51.174;4.456;2024-01-15T04:45:19;7.03;;;5.32;;
25917;SDS011;13899;51.174;4.456;2024-01-15T04:47:47;9.73;;;5.70;;
25917;SDS011;13899;51.174;4.456;2024-01-15T04:50:13;12.23;;;4.70;;
25917;SDS011;13899;51.174;4.456;2024-01-15T04:52:39;9.50;;;5.40;;
25917;SDS011;13899;51.174;4.456;2024-01-15T04:55:05;6.77;;;5.20;;
25917;SDS011;13899;51.174;4.456;2024-01-15T04:57:31;14.30;;;4.87;;
25917;SDS011;13899;51.174;4.456;2024-01-15T04:59:57;11.13;;;5.22;;
25917;SDS011;13899;51.174;4.456;2024-01-15T05:02:22;9.17;;;5.33;;
25917;SDS011;13899;51.174;4.456;2024-01-15T05:04:48;7.43;;;5.00;;
25917;SDS011;13899;51.174;4.456;2024-01-15T05:07:14;7.43;;;4.73;;
25917;SDS011;13899;51.174;4.456;2024-01-15T05:09:39;11.27;;;4.27;;
25917;SDS011;13899;51.174;4.456;2024-01-15T05:12:05;11.47;;;4.03;;
25917;SDS011;13899;51.174;4.456;2024-01-15T05:14:31;7.93;;;5.00;;
25917;SDS011;13899;51.174;4.456;2024-01-15T05:16:56;8.20;;;4.63;;
25917;SDS011;13899;51.174;4.456;2024-01-15T05:19:22;7.50;;;4.03;;
25917;SDS011;13899;51.174;4.456;2024-01-15T05:21:47;5.93;;;3.33;;
25917;SDS011;13899;51.174;4.456;2024-01-15T05:24:13;6.77;;;4.43;;
25917;SDS011;13899;51.174;4.456;2024-01-15T05:26:38;6.70;;;4.17;;
25917;SDS011;13899;51.174;4.456;2024-01-15T05:29:04;7.47;;;4.23;;
25917;SDS011;13899;51.174;4.456;2024-01-15T05:31:30;6.77;;;3.87;;
25917;SDS011;13899;51.174;4.456;2024-01-15T05:33:55;4.70;;;3.93;;
25917;SDS011;13899;51.174;4.456;2024-01-15T05:36:21;9.93;;;4.37;;
25917;SDS011;13899;51.174;4.456;2024-01-15T05:38:47;10.87;;;4.50;;
25917;SDS011;13899;51.174;4.456;2024-01-15T05:41:13;8.30;;;4.38;;
25917;SDS011;13899;51.174;4.456;2024-01-15T05:43:39;8.93;;;3.50;;
25917;SDS011;13899;51.174;4.456;2024-01-15T05:46:04;4.70;;;2.87;;
25917;SDS011;13899;51.174;4.456;2024-01-15T05:48:30;5.30;;;3.20;;
25917;SDS011;13899;51.174;4.456;2024-01-15T05:50:55;8.73;;;3.63;;
25917;SDS011;13899;51.174;4.456;2024-01-15T05:53:21;12.87;;;5.40;;
25917;SDS011;13899;51.174;4.456;2024-01-15T05:55:47;11.27;;;3.47;;
25917;SDS011;13899;51.174;4.456;2024-01-15T05:58:12;8.90;;;3.43;;
25917;SDS011;13899;51.174;4.456;2024-01-15T06:00:38;5.53;;;3.07;;
25917;SDS011;13899;51.174;4.456;2024-01-15T06:03:03;7.83;;;3.13;;
25917;SDS011;13899;51.174;4.456;2024-01-15T06:05:29;7.43;;;3.50;;
25917;SDS011;13899;51.174;4.456;2024-01-15T06:07:55;4.77;;;3.10;;
25917;SDS011;13899;51.174;4.456;2024-01-15T06:10:20;10.20;;;2.90;;
25917;SDS011;13899;51.174;4.456;2024-01-15T06:12:46;11.90;;;3.97;;
25917;SDS011;13899;51.174;4.456;2024-01-15T06:15:12;12.23;;;3.50;;
25917;SDS011;13899;51.174;4.456;2024-01-15T06:17:38;8.20;;;3.72;;
25917;SDS011;13899;51.174;4.456;2024-01-15T06:20:04;9.20;;;3.37;;
25917;SDS011;13899;51.174;4.456;2024-01-15T06:22:30;7.90;;;3.58;;
25917;SDS011;13899;51.174;4.456;2024-01-15T06:24:55;6.00;;;4.33;;
25917;SDS011;13899;51.174;4.456;2024-01-15T06:27:21;7.80;;;2.60;;
25917;SDS011;13899;51.174;4.456;2024-01-15T06:29:47;9.70;;;4.17;;
25917;SDS011;13899;51.174;4.456;2024-01-15T06:32:13;12.70;;;3.80;;
25917;SDS011;13899;51.174;4.456;2024-01-15T06:34:38;10.10;;;2.97;;
25917;SDS011;13899;51.174;4.456;2024-01-15T06:37:04;11.30;;;3.70;;
25917;SDS011;13899;51.174;4.456;2024-01-15T06:39:30;9.17;;;3.03;;
25917;SDS011;13899;51.174;4.456;2024-01-15T06:41:56;8.63;;;3.17;;
25917;SDS011;13899;51.174;4.456;2024-01-15T06:44:22;9.57;;;3.90;;
25917;SDS011;13899;51.174;4.456;2024-01-15T06:46:47;4.10;;;2.27;;
25917;SDS011;13899;51.174;4.456;2024-01-15T06:49:13;5.80;;;2.40;;
25917;SDS011;13899;51.174;4.456;2024-01-15T06:51:39;6.73;;;2.40;;
25917;SDS011;13899;51.174;4.456;2024-01-15T06:54:05;12.93;;;4.67;;
25917;SDS011;13899;51.174;4.456;2024-01-15T06:56:31;8.73;;;2.67;;
25917;SDS011;13899;51.174;4.456;2024-01-15T06:58:57;9.65;;;2.50;;
25917;SDS011;13899;51.174;4.456;2024-01-15T07:01:23;8.73;;;2.90;;
25917;SDS011;13899;51.174;4.456;2024-01-15T07:03:48;9.50;;;2.60;;
25917;SDS011;13899;51.174;4.456;2024-01-15T07:06:14;10.83;;;3.20;;
25917;SDS011;13899;51.174;4.456;2024-01-15T07:08:40;5.90;;;1.77;;
25917;SDS011;13899;51.174;4.456;2024-01-15T07:11:06;6.22;;;2.15;;
25917;SDS011;13899;51.174;4.456;2024-01-15T07:13:32;6.20;;;2.20;;
25917;SDS011;13899;51.174;4.456;2024-01-15T07:15:57;6.43;;;2.23;;
25917;SDS011;13899;51.174;4.456;2024-01-15T07:18:23;5.93;;;2.27;;
25917;SDS011;13899;51.174;4.456;2024-01-15T07:20:49;10.00;;;2.20;;
25917;SDS011;13899;51.174;4.456;2024-01-15T07:23:15;9.67;;;2.77;;
25917;SDS011;13899;51.174;4.456;2024-01-15T07:25:41;8.30;;;1.97;;
25917;SDS011;13899;51.174;4.456;2024-01-15T07:28:07;8.52;;;2.20;;
25917;SDS011;13899;51.174;4.456;2024-01-15T07:30:33;6.10;;;2.10;;
25917;SDS011;13899;51.174;4.456;2024-01-15T07:32:58;6.20;;;2.10;;
25917;SDS011;13899;51.174;4.456;2024-01-15T07:35:24;8.37;;;2.53;;
25917;SDS011;13899;51.174;4.456;2024-01-15T07:37:49;3.93;;;1.87;;
25917;SDS011;13899;51.174;4.456;2024-01-15T07:40:15;13.37;;;2.30;;
25917;SDS011;13899;51.174;4.456;2024-01-15T07:42:41;9.30;;;2.67;;
25917;SDS011;13899;51.174;4.456;2024-01-15T07:45:07;8.63;;;3.42;;
25917;SDS011;13899;51.174;4.456;2024-01-15T07:47:35;3.75;;;2.30;;
25917;SDS011;13899;51.174;4.456;2024-01-15T07:50:00;8.10;;;3.33;;
25917;SDS011;13899;51.174;4.456;2024-01-15T07:52:26;10.23;;;2.80;;
25917;SDS011;13899;51.174;4.456;2024-01-15T07:54:51;5.90;;;2.70;;
25917;SDS011;13899;51.174;4.456;2024-01-15T07:57:17;13.93;;;2.80;;
25917;SDS011;13899;51.174;4.456;2024-01-15T07:59:43;9.57;;;3.20;;
25917;SDS011;13899;51.174;4.456;2024-01-15T08:02:08;7.00;;;1.73;;
25917;SDS011;13899;51.174;4.456;2024-01-15T08:04:36;6.45;;;2.65;;
25917;SDS011;13899;51.174;4.456;2024-01-15T08:07:02;8.45;;;2.03;;
25917;SDS011;13899;51.174;4.456;2024-01-15T08:09:28;10.60;;;2.37;;
25917;SDS011;13899;51.174;4.456;2024-01-15T08:11:54;8.38;;;1.85;;
25917;SDS011;13899;51.174;4.456;2024-01-15T08:14:20;9.43;;;2.07;;
25917;SDS011;13899;51.174;4.456;2024-01-15T08:16:45;5.67;;;1.30;;
25917;SDS011;13899;51.174;4.456;2024-01-15T08:19:11;8.07;;;1.80;;
25917;SDS011;13899;51.174;4.456;2024-01-15T08:21:37;5.03;;;2.40;;
25917;SDS011;13899;51.174;4.456;2024-01-15T08:24:02;6.53;;;1.53;;
25917;SDS011;13899;51.174;4.456;2024-01-15T08:26:28;5.73;;;2.33;;
25917;SDS011;13899;51.174;4.456;2024-01-15T08:28:54;6.05;;;1.25;;
25917;SDS011;13899;51.174;4.456;2024-01-15T08:31:20;5.47;;;1.40;;
25917;SDS011;13899;51.174;4.456;2024-01-15T08:33:46;6.50;;;1.27;;
25917;SDS011;13899;51.174;4.456;2024-01-15T08:36:12;5.70;;;1.60;;
25917;SDS011;13899;51.174;4.456;2024-01-15T08:38:38;3.25;;;1.30;;
25917;SDS011;13899;51.174;4.456;2024-01-15T08:41:03;4.97;;;1.20;;
25917;SDS011;13899;51.174;4.456;2024-01-15T08:43:29;4.57;;;1.37;;
25917;SDS011;13899;51.174;4.456;2024-01-15T08:45:58;12.57;;;1.75;;
25917;SDS011;13899;51.174;4.456;2024-01-15T08:48:24;8.23;;;1.63;;
25917;SDS011;13899;51.174;4.456;2024-01-15T08:50:52;6.60;;;1.65;;
25917;SDS011;13899;51.174;4.456;2024-01-15T08:53:18;6.03;;;2.20;;
25917;SDS011;13899;51.174;4.456;2024-01-15T08:55:44;4.17;;;1.53;;
25917;SDS011;13899;51.174;4.456;2024-01-15T08:58:09;9.80;;;1.63;;
25917;SDS011;13899;51.174;4.456;2024-01-15T09:00:35;8.57;;;1.70;;
25917;SDS011;13899;51.174;4.456;2024-01-15T09:03:01;3.83;;;1.60;;
25917;SDS011;13899;51.174;4.456;2024-01-15T09:05:27;7.65;;;1.60;;
25917;SDS011;13899;51.174;4.456;2024-01-15T09:07:53;6.30;;;1.97;;
25917;SDS011;13899;51.174;4.456;2024-01-15T09:10:19;2.65;;;1.20;;
25917;SDS011;13899;51.174;4.456;2024-01-15T09:12:45;8.57;;;1.90;;
25917;SDS011;13899;51.174;4.456;2024-01-15T09:15:11;11.32;;;2.40;;
25917;SDS011;13899;51.174;4.456;2024-01-15T09:17:37;8.30;;;1.70;;
25917;SDS011;13899;51.174;4.456;2024-01-15T09:20:02;8.77;;;1.80;;
25917;SDS011;13899;51.174;4.456;2024-01-15T09:22:31;5.60;;;1.60;;
25917;SDS011;13899;51.174;4.456;2024-01-15T09:24:58;9.30;;;1.70;;
25917;SDS011;13899;51.174;4.456;2024-01-15T09:27:24;7.22;;;2.65;;
25917;SDS011;13899;51.174;4.456;2024-01-15T09:29:51;3.95;;;1.70;;
25917;SDS011;13899;51.174;4.456;2024-01-15T09:32:19;10.77;;;1.90;;
25917;SDS011;13899;51.174;4.456;2024-01-15T09:34:45;10.03;;;2.00;;
25917;SDS011;13899;51.174;4.456;2024-01-15T09:37:11;3.85;;;1.90;;
25917;SDS011;13899;51.174;4.456;2024-01-15T09:39:39;6.90;;;2.33;;
25917;SDS011;13899;51.174;4.456;2024-01-15T09:42:05;4.70;;;2.03;;
25917;SDS011;13899;51.174;4.456;2024-01-15T09:44:31;7.80;;;1.70;;
25917;SDS011;13899;51.174;4.456;2024-01-15T09:46:57;8.40;;;1.95;;
25917;SDS011;13899;51.174;4.456;2024-01-15T09:49:23;5.72;;;1.67;;
25917;SDS011;13899;51.174;4.456;2024-01-15T09:51:49;16.47;;;2.30;;
25917;SDS011;13899;51.174;4.456;2024-01-15T09:54:15;5.23;;;1.60;;
25917;SDS011;13899;51.174;4.456;2024-01-15T09:56:42;4.10;;;1.80;;
25917;SDS011;13899;51.174;4.456;2024-01-15T09:59:11;5.25;;;1.45;;
25917;SDS011;13899;51.174;4.456;2024-01-15T10:01:40;5.60;;;1.33;;
25917;SDS011;13899;51.174;4.456;2024-01-15T10:04:06;7.13;;;1.53;;
25917;SDS011;13899;51.174;4.456;2024-01-15T10:06:31;6.33;;;1.40;;
25917;SDS011;13899;51.174;4.456;2024-01-15T10:11:24;5.82;;;2.25;;
25917;SDS011;13899;51.174;4.456;2024-01-15T10:13:50;6.10;;;1.83;;
25917;SDS011;13899;51.174;4.456;2024-01-15T10:16:18;5.18;;;1.88;;
25917;SDS011;13899;51.174;4.456;2024-01-15T10:18:44;6.88;;;1.23;;
25917;SDS011;13899;51.174;4.456;2024-01-15T10:21:09;6.85;;;6.15;;
25917;SDS011;13899;51.174;4.456;2024-01-15T10:23:35;7.90;;;5.63;;
25917;SDS011;13899;51.174;4.456;2024-01-15T10:26:01;7.20;;;1.60;;
25917;SDS011;13899;51.174;4.456;2024-01-15T10:28:27;11.77;;;4.50;;
25917;SDS011;13899;51.174;4.456;2024-01-15T10:30:56;7.43;;;3.78;;
25917;SDS011;13899;51.174;4.456;2024-01-15T10:33:24;8.05;;;1.83;;
25917;SDS011;13899;51.174;4.456;2024-01-15T10:35:56;5.55;;;1.70;;
25917;SDS011;13899;51.174;4.456;2024-01-15T10:38:23;6.32;;;1.27;;
25917;SDS011;13899;51.174;4.456;2024-01-15T10:40:53;11.00;;;1.48;;
25917;SDS011;13899;51.174;4.456;2024-01-15T10:43:20;3.75;;;1.27;;
25917;SDS011;13899;51.174;4.456;2024-01-15T10:45:47;9.95;;;1.15;;
25917;SDS011;13899;51.174;4.456;2024-01-15T10:48:13;11.07;;;1.40;;
25917;SDS011;13899;51.174;4.456;2024-01-15T10:50:41;3.47;;;1.10;;
25917;SDS011;13899;51.174;4.456;2024-01-15T10:53:06;4.00;;;1.30;;
25917;SDS011;13899;51.174;4.456;2024-01-15T10:55:37;6.72;;;2.22;;
25917;SDS011;13899;51.174;4.456;2024-01-15T10:58:06;5.28;;;1.30;;
25917;SDS011;13899;51.174;4.456;2024-01-15T11:00:33;3.95;;;1.05;;
25917;SDS011;13899;51.174;4.456;2024-01-15T11:03:00;5.97;;;1.30;;
25917;SDS011;13899;51.174;4.456;2024-01-15T11:05:27;6.10;;;1.20;;
25917;SDS011;13899;51.174;4.456;2024-01-15T11:07:56;9.90;;;1.25;;
25917;SDS011;13899;51.174;4.456;2024-01-15T11:10:58;6.35;;;1.50;;
25917;SDS011;13899;51.174;4.456;2024-01-15T11:18:26;6.93;;;1.38;;
25917;SDS011;13899;51.174;4.456;2024-01-15T11:29:01;5.20;;;1.20;;
25917;SDS011;13899;51.174;4.456;2024-01-15T11:34:06;7.18;;;1.73;;
25917;SDS011;13899;51.174;4.456;2024-01-15T11:42:00;7.05;;;1.40;;
25917;SDS011;13899;51.174;4.456;2024-01-15T11:44:27;4.85;;;1.83;;
25917;SDS011;13899;51.174;4.456;2024-01-15T11:46:57;6.27;;;1.27;;
25917;SDS011;13899;51.174;4.456;2024-01-15T11:52:36;3.58;;;1.00;;
25917;SDS011;13899;51.174;4.456;2024-01-15T11:55:14;3.75;;;1.10;;
25917;SDS011;13899;51.174;4.456;2024-01-15T11:57:50;4.28;;;1.88;;
25917;SDS011;13899;51.174;4.456;2024-01-15T12:00:17;5.05;;;1.27;;
25917;SDS011;13899;51.174;4.456;2024-01-15T12:02:43;9.50;;;2.28;;
25917;SDS011;13899;51.174;4.456;2024-01-15T12:05:11;4.60;;;2.05;;
25917;SDS011;13899;51.174;4.456;2024-01-15T12:07:38;6.43;;;5.78;;
25917;SDS011;13899;51.174;4.456;2024-01-15T12:10:08;4.35;;;1.90;;
25917;SDS011;13899;51.174;4.456;2024-01-15T12:15:22;4.15;;;1.90;;
25917;SDS011;13899;51.174;4.456;2024-01-15T12:17:48;7.13;;;1.88;;
25917;SDS011;13899;51.174;4.456;2024-01-15T12:20:14;7.33;;;2.93;;
25917;SDS011;13899;51.174;4.456;2024-01-15T12:22:41;4.70;;;2.15;;
25917;SDS011;13899;51.174;4.456;2024-01-15T12:25:06;6.07;;;2.23;;
25917;SDS011;13899;51.174;4.456;2024-01-15T12:27:32;4.03;;;2.13;;
25917;SDS011;13899;51.174;4.456;2024-01-15T12:29:58;2.20;;;2.00;;
25917;SDS011;13899;51.174;4.456;2024-01-15T12:32:24;4.80;;;2.00;;
25917;SDS011;13899;51.174;4.456;2024-01-15T12:34:50;2.07;;;1.90;;
25917;SDS011;13899;51.174;4.456;2024-01-15T12:37:19;3.87;;;0.80;;
25917;SDS011;13899;51.174;4.456;2024-01-15T12:39:44;1.67;;;0.60;;
25917;SDS011;13899;51.174;4.456;2024-01-15T12:42:10;0.90;;;0.60;;
25917;SDS011;13899;51.174;4.456;2024-01-15T12:44:36;2.27;;;0.80;;
25917;SDS011;13899;51.174;4.456;2024-01-15T12:47:05;3.63;;;1.05;;
25917;SDS011;13899;51.174;4.456;2024-01-15T12:49:31;2.58;;;0.68;;
25917;SDS011;13899;51.174;4.456;2024-01-15T12:51:57;2.28;;;0.98;;
25917;SDS011;13899;51.174;4.456;2024-01-15T12:54:24;1.50;;;0.77;;
25917;SDS011;13899;51.174;4.456;2024-01-15T12:56:50;1.80;;;0.60;;
25917;SDS011;13899;51.174;4.456;2024-01-15T12:59:16;2.75;;;1.48;;
25917;SDS011;13899;51.174;4.456;2024-01-15T13:01:42;7.55;;;7.10;;
25917;SDS011;13899;51.174;4.456;2024-01-15T13:04:08;3.22;;;1.10;;
25917;SDS011;13899;51.174;4.456;2024-01-15T13:06:34;2.73;;;0.90;;
25917;SDS011;13899;51.174;4.456;2024-01-15T13:09:01;1.60;;;0.85;;
25917;SDS011;13899;51.174;4.456;2024-01-15T13:11:35;1.83;;;0.85;;
25917;SDS011;13899;51.174;4.456;2024-01-15T13:14:01;2.33;;;1.10;;
25917;SDS011;13899;51.174;4.456;2024-01-15T13:16:26;5.10;;;1.10;;
25917;SDS011;13899;51.174;4.456;2024-01-15T13:18:54;2.25;;;1.00;;
25917;SDS011;13899;51.174;4.456;2024-01-15T13:21:20;5.68;;;1.30;;
25917;SDS011;13899;51.174;4.456;2024-01-15T13:23:45;1.60;;;1.30;;
25917;SDS011;13899;51.174;4.456;2024-01-15T13:26:11;3.40;;;1.10;;
25917;SDS011;13899;51.174;4.456;2024-01-15T13:28:37;2.53;;;1.05;;
25917;SDS011;13899;51.174;4.456;2024-01-15T13:31:03;2.73;;;1.53;;
25917;SDS011;13899;51.174;4.456;2024-01-15T13:33:29;2.45;;;1.20;;
25917;SDS011;13899;51.174;4.456;2024-01-15T13:35:55;2.43;;;1.37;;
25917;SDS011;13899;51.174;4.456;2024-01-15T13:38:21;2.20;;;1.23;;
25917;SDS011;13899;51.174;4.456;2024-01-15T13:40:46;3.23;;;1.13;;
25917;SDS011;13899;51.174;4.456;2024-01-15T13:43:12;5.13;;;1.90;;
25917;SDS011;13899;51.174;4.456;2024-01-15T13:45:39;3.35;;;1.20;;
25917;SDS011;13899;51.174;4.456;2024-01-15T13:48:08;1.77;;;1.23;;
25917;SDS011;13899;51.174;4.456;2024-01-15T13:50:34;4.90;;;1.27;;
25917;SDS011;13899;51.174;4.456;2024-01-15T13:53:03;6.07;;;1.30;;
25917;SDS011;13899;51.174;4.456;2024-01-15T13:55:29;7.88;;;6.93;;
25917;SDS011;13899;51.174;4.456;2024-01-15T13:57:55;6.35;;;2.90;;
25917;SDS011;13899;51.174;4.456;2024-01-15T14:00:21;4.30;;;3.20;;
25917;SDS011;13899;51.174;4.456;2024-01-15T14:02:48;1.83;;;0.80;;
25917;SDS011;13899;51.174;4.456;2024-01-15T14:05:14;7.33;;;1.20;;
25917;SDS011;13899;51.174;4.456;2024-01-15T14:07:39;3.90;;;0.90;;
25917;SDS011;13899;51.174;4.456;2024-01-15T14:10:06;2.97;;;1.10;;
25917;SDS011;13899;51.174;4.456;2024-01-15T14:12:33;5.78;;;1.17;;
25917;SDS011;13899;51.174;4.456;2024-01-15T14:14:59;3.10;;;1.08;;
25917;SDS011;13899;51.174;4.456;2024-01-15T14:17:26;2.85;;;1.00;;
25917;SDS011;13899;51.174;4.456;2024-01-15T14:19:52;4.18;;;1.00;;
25917;SDS011;13899;51.174;4.456;2024-01-15T14:22:18;4.30;;;1.55;;
25917;SDS011;13899;51.174;4.456;2024-01-15T14:24:44;3.27;;;1.27;;
25917;SDS011;13899;51.174;4.456;2024-01-15T14:27:09;4.07;;;1.07;;
25917;SDS011;13899;51.174;4.456;2024-01-15T14:29:35;3.47;;;0.90;;
25917;SDS011;13899;51.174;4.456;2024-01-15T14:32:01;3.33;;;1.17;;
25917;SDS011;13899;51.174;4.456;2024-01-15T14:34:27;4.17;;;1.23;;
25917;SDS011;13899;51.174;4.456;2024-01-15T14:36:53;4.93;;;1.50;;
25917;SDS011;13899;51.174;4.456;2024-01-15T14:39:19;3.38;;;1.30;;
25917;SDS011;13899;51.174;4.456;2024-01-15T14:41:46;5.80;;;1.50;;
25917;SDS011;13899;51.174;4.456;2024-01-15T14:44:12;7.10;;;1.50;;
25917;SDS011;13899;51.174;4.456;2024-01-15T14:46:38;4.60;;;1.40;;
25917;SDS011;13899;51.174;4.456;2024-01-15T14:49:03;5.90;;;1.63;;
25917;SDS011;13899;51.174;4.456;2024-01-15T14:51:30;5.13;;;1.73;;
25917;SDS011;13899;51.174;4.456;2024-01-15T14:53:55;4.53;;;2.00;;
25917;SDS011;13899;51.174;4.456;2024-01-15T14:56:21;6.53;;;2.67;;
25917;SDS011;13899;51.174;4.456;2024-01-15T14:58:47;6.90;;;2.53;;
25917;SDS011;13899;51.174;4.456;2024-01-15T15:01:13;8.77;;;3.30;;
25917;SDS011;13899;51.174;4.456;2024-01-15T15:03:39;3.88;;;2.00;;
25917;SDS011;13899;51.174;4.456;2024-01-15T15:06:05;4.67;;;2.60;;
25917;SDS011;13899;51.174;4.456;2024-01-15T15:08:32;9.98;;;3.08;;
25917;SDS011;13899;51.174;4.456;2024-01-15T15:10:58;4.07;;;1.65;;
25917;SDS011;13899;51.174;4.456;2024-01-15T15:13:24;6.93;;;2.60;;